sensor_id;sensor_type;location;lat;lon;timestamp;pressure;altitude;pressure_sealevel;temperature;humidity
64908;BME280;51412;52.236;5.188;2022-08-19T00:00:30;101365.78;;;19.43;82.23
64908;BME280;51412;52.236;5.188;2022-08-19T00:02:56;101362.75;;;19.41;82.27
64908;BME280;51412;52.236;5.188;2022-08-19T00:05:23;101363.91;;;19.40;82.42
64908;BME280;51412;52.236;5.188;2022-08-19T00:07:50;101353.88;;;19.40;82.29
64908;BME280;51412;52.236;5.188;2022-08-19T00:10:18;101352.78;;;19.38;82.25
64908;BME280;51412;52.236;5.188;2022-08-19T00:12:45;101349.38;;;19.33;82.57
64908;BME280;51412;52.236;5.188;2022-08-19T00:15:13;101355.94;;;19.32;83.10
64908;BME280;51412;52.236;5.188;2022-08-19T00:17:42;101356.75;;;19.29;83.17
64908;BME280;51412;52.236;5.188;2022-08-19T00:20:12;101361.81;;;19.27;82.69
64908;BME280;51412;52.236;5.188;2022-08-19T00:22:39;101359.94;;;19.24;82.64
64908;BME280;51412;52.236;5.188;2022-08-19T00:25:08;101368.81;;;19.21;82.48
64908;BME280;51412;52.236;5.188;2022-08-19T00:27:34;101362.31;;;19.18;82.71
64908;BME280;51412;52.236;5.188;2022-08-19T00:30:03;101360.41;;;19.19;82.35
64908;BME280;51412;52.236;5.188;2022-08-19T00:32:30;101353.84;;;19.20;82.49
64908;BME280;51412;52.236;5.188;2022-08-19T00:34:58;101356.16;;;19.18;82.15
64908;BME280;51412;52.236;5.188;2022-08-19T00:37:24;101357.34;;;19.17;82.24
64908;BME280;51412;52.236;5.188;2022-08-19T00:39:51;101348.91;;;19.15;82.31
64908;BME280;51412;52.236;5.188;2022-08-19T00:42:21;101341.25;;;19.13;82.46
64908;BME280;51412;52.236;5.188;2022-08-19T00:44:47;101346.97;;;19.15;82.78
64908;BME280;51412;52.236;5.188;2022-08-19T00:47:14;101351.59;;;19.15;83.53
64908;BME280;51412;52.236;5.188;2022-08-19T00:49:43;101349.63;;;19.19;83.21
64908;BME280;51412;52.236;5.188;2022-08-19T00:52:19;101341.13;;;19.21;82.54
64908;BME280;51412;52.236;5.188;2022-08-19T00:54:47;101341.53;;;19.19;82.62
64908;BME280;51412;52.236;5.188;2022-08-19T00:57:15;101354.63;;;19.17;82.58
64908;BME280;51412;52.236;5.188;2022-08-19T00:59:47;101344.69;;;19.14;82.77
64908;BME280;51412;52.236;5.188;2022-08-19T01:02:14;101353.19;;;19.12;82.53
64908;BME280;51412;52.236;5.188;2022-08-19T01:04:41;101350.13;;;19.10;82.55
64908;BME280;51412;52.236;5.188;2022-08-19T01:07:07;101347.50;;;19.07;82.49
64908;BME280;51412;52.236;5.188;2022-08-19T01:09:34;101346.38;;;19.04;82.96
64908;BME280;51412;52.236;5.188;2022-08-19T01:12:01;101342.22;;;18.99;83.34
64908;BME280;51412;52.236;5.188;2022-08-19T01:14:29;101357.56;;;19.02;82.93
64908;BME280;51412;52.236;5.188;2022-08-19T01:16:57;101352.97;;;18.99;82.95
64908;BME280;51412;52.236;5.188;2022-08-19T01:19:28;101354.19;;;18.98;82.94
64908;BME280;51412;52.236;5.188;2022-08-19T01:21:58;101346.44;;;19.00;82.84
64908;BME280;51412;52.236;5.188;2022-08-19T01:24:28;101348.38;;;19.00;82.47
64908;BME280;51412;52.236;5.188;2022-08-19T01:26:56;101341.88;;;18.97;82.02
64908;BME280;51412;52.236;5.188;2022-08-19T01:29:22;101354.22;;;18.95;82.58
64908;BME280;51412;52.236;5.188;2022-08-19T01:31:49;101356.53;;;18.93;82.46
64908;BME280;51412;52.236;5.188;2022-08-19T01:34:18;101359.66;;;18.91;82.29
64908;BME280;51412;52.236;5.188;2022-08-19T01:36:46;101349.69;;;18.88;82.12
64908;BME280;51412;52.236;5.188;2022-08-19T01:39:16;101352.00;;;18.86;82.07
64908;BME280;51412;52.236;5.188;2022-08-19T01:41:45;101350.13;;;18.83;82.21
64908;BME280;51412;52.236;5.188;2022-08-19T01:44:12;101344.78;;;18.79;82.56
64908;BME280;51412;52.236;5.188;2022-08-19T01:46:38;101360.56;;;18.81;82.56
64908;BME280;51412;52.236;5.188;2022-08-19T01:49:05;101360.59;;;18.77;82.65
64908;BME280;51412;52.236;5.188;2022-08-19T01:51:32;101366.38;;;18.76;82.82
64908;BME280;51412;52.236;5.188;2022-08-19T01:53:59;101366.81;;;18.74;83.21
64908;BME280;51412;52.236;5.188;2022-08-19T01:56:25;101365.28;;;18.73;83.17
64908;BME280;51412;52.236;5.188;2022-08-19T01:58:56;101360.63;;;18.74;83.05
64908;BME280;51412;52.236;5.188;2022-08-19T02:01:23;101364.44;;;18.76;83.07
64908;BME280;51412;52.236;5.188;2022-08-19T02:03:50;101360.63;;;18.74;82.99
64908;BME280;51412;52.236;5.188;2022-08-19T02:06:17;101370.19;;;18.78;83.20
64908;BME280;51412;52.236;5.188;2022-08-19T02:08:43;101367.13;;;18.76;83.14
64908;BME280;51412;52.236;5.188;2022-08-19T02:11:19;101362.91;;;18.75;82.89
64908;BME280;51412;52.236;5.188;2022-08-19T02:13:46;101366.03;;;18.74;82.72
64908;BME280;51412;52.236;5.188;2022-08-19T02:16:16;101348.44;;;18.65;83.34
64908;BME280;51412;52.236;5.188;2022-08-19T02:18:42;101368.72;;;18.74;82.70
64908;BME280;51412;52.236;5.188;2022-08-19T02:21:09;101368.38;;;18.72;82.64
64908;BME280;51412;52.236;5.188;2022-08-19T02:23:36;101372.66;;;18.65;82.81
64908;BME280;51412;52.236;5.188;2022-08-19T02:26:02;101371.13;;;18.64;82.36
64908;BME280;51412;52.236;5.188;2022-08-19T02:28:29;101363.88;;;18.61;82.04
64908;BME280;51412;52.236;5.188;2022-08-19T02:30:55;101371.63;;;18.59;81.80
64908;BME280;51412;52.236;5.188;2022-08-19T02:33:23;101363.91;;;18.58;81.84
64908;BME280;51412;52.236;5.188;2022-08-19T02:35:49;101362.00;;;18.58;82.13
64908;BME280;51412;52.236;5.188;2022-08-19T02:38:16;101370.50;;;18.57;82.06
64908;BME280;51412;52.236;5.188;2022-08-19T02:40:52;101367.03;;;18.56;81.74
64908;BME280;51412;52.236;5.188;2022-08-19T02:43:20;101379.31;;;18.57;82.29
64908;BME280;51412;52.236;5.188;2022-08-19T02:45:47;101370.09;;;18.58;82.28
64908;BME280;51412;52.236;5.188;2022-08-19T02:48:15;101364.69;;;18.58;81.99
64908;BME280;51412;52.236;5.188;2022-08-19T02:50:44;101356.63;;;18.58;82.14
64908;BME280;51412;52.236;5.188;2022-08-19T02:53:10;101356.59;;;18.62;82.16
64908;BME280;51412;52.236;5.188;2022-08-19T02:55:43;101360.88;;;18.56;82.36
64908;BME280;51412;52.236;5.188;2022-08-19T02:58:11;101349.00;;;18.53;82.21
64908;BME280;51412;52.236;5.188;2022-08-19T03:00:42;101351.69;;;18.53;82.09
64908;BME280;51412;52.236;5.188;2022-08-19T03:03:09;101346.69;;;18.55;82.00
64908;BME280;51412;52.236;5.188;2022-08-19T03:05:35;101344.78;;;18.52;82.58
64908;BME280;51412;52.236;5.188;2022-08-19T03:08:04;101352.44;;;18.54;82.16
64908;BME280;51412;52.236;5.188;2022-08-19T03:10:30;101351.72;;;18.49;82.06
64908;BME280;51412;52.236;5.188;2022-08-19T03:12:57;101352.53;;;18.46;82.30
64908;BME280;51412;52.236;5.188;2022-08-19T03:15:24;101351.00;;;18.45;82.39
64908;BME280;51412;52.236;5.188;2022-08-19T03:17:51;101350.66;;;18.43;82.01
64908;BME280;51412;52.236;5.188;2022-08-19T03:20:17;101355.69;;;18.41;82.02
64908;BME280;51412;52.236;5.188;2022-08-19T03:22:44;101349.53;;;18.41;82.02
64908;BME280;51412;52.236;5.188;2022-08-19T03:25:12;101346.13;;;18.37;82.07
64908;BME280;51412;52.236;5.188;2022-08-19T03:27:38;101347.28;;;18.35;82.44
64908;BME280;51412;52.236;5.188;2022-08-19T03:30:06;101339.63;;;18.34;82.93
64908;BME280;51412;52.236;5.188;2022-08-19T03:32:32;101331.97;;;18.32;82.64
64908;BME280;51412;52.236;5.188;2022-08-19T03:34:59;101333.56;;;18.26;83.14
64908;BME280;51412;52.236;5.188;2022-08-19T03:37:26;101338.22;;;18.22;83.19
64908;BME280;51412;52.236;5.188;2022-08-19T03:39:53;101329.81;;;18.20;83.64
64908;BME280;51412;52.236;5.188;2022-08-19T03:42:21;101339.00;;;18.23;83.43
64908;BME280;51412;52.236;5.188;2022-08-19T03:44:47;101334.00;;;18.21;83.98
64908;BME280;51412;52.236;5.188;2022-08-19T03:47:14;101340.91;;;18.22;83.71
64908;BME280;51412;52.236;5.188;2022-08-19T03:49:42;101330.97;;;18.19;83.62
64908;BME280;51412;52.236;5.188;2022-08-19T03:52:09;101337.50;;;18.18;83.99
64908;BME280;51412;52.236;5.188;2022-08-19T03:54:35;101346.31;;;18.22;83.78
64908;BME280;51412;52.236;5.188;2022-08-19T03:57:03;101343.25;;;18.20;83.99
64908;BME280;51412;52.236;5.188;2022-08-19T03:59:34;101352.91;;;18.17;83.73
64908;BME280;51412;52.236;5.188;2022-08-19T04:02:06;101344.06;;;18.17;83.97
64908;BME280;51412;52.236;5.188;2022-08-19T04:04:34;101344.06;;;18.17;83.92
64908;BME280;51412;52.236;5.188;2022-08-19T04:07:00;101346.75;;;18.17;83.66
64908;BME280;51412;52.236;5.188;2022-08-19T04:09:27;101346.00;;;18.16;83.45
64908;BME280;51412;52.236;5.188;2022-08-19T04:11:56;101352.19;;;18.13;83.56
64908;BME280;51412;52.236;5.188;2022-08-19T04:14:25;101351.41;;;18.13;83.46
64908;BME280;51412;52.236;5.188;2022-08-19T04:16:55;101343.75;;;18.11;83.51
64908;BME280;51412;52.236;5.188;2022-08-19T04:19:22;101342.97;;;18.11;83.56
64908;BME280;51412;52.236;5.188;2022-08-19T04:21:50;101341.44;;;18.10;84.57
64908;BME280;51412;52.236;5.188;2022-08-19T04:24:18;101332.22;;;18.11;84.03
64908;BME280;51412;52.236;5.188;2022-08-19T04:26:46;101330.28;;;18.11;84.08
64908;BME280;51412;52.236;5.188;2022-08-19T04:29:15;101319.13;;;18.13;83.95
64908;BME280;51412;52.236;5.188;2022-08-19T04:31:43;101324.16;;;18.11;83.63
64908;BME280;51412;52.236;5.188;2022-08-19T04:34:13;101332.25;;;18.07;83.25
64908;BME280;51412;52.236;5.188;2022-08-19T04:36:42;101327.66;;;18.08;83.23
64908;BME280;51412;52.236;5.188;2022-08-19T04:39:12;101333.03;;;18.08;83.47
64908;BME280;51412;52.236;5.188;2022-08-19T04:41:39;101333.41;;;18.06;83.28
64908;BME280;51412;52.236;5.188;2022-08-19T04:44:24;101333.81;;;18.05;83.20
64908;BME280;51412;52.236;5.188;2022-08-19T04:46:51;101331.13;;;18.05;82.94
64908;BME280;51412;52.236;5.188;2022-08-19T04:49:20;101342.28;;;18.03;83.03
64908;BME280;51412;52.236;5.188;2022-08-19T04:51:48;101338.06;;;18.02;82.82
64908;BME280;51412;52.236;5.188;2022-08-19T04:54:15;101346.91;;;18.03;83.52
64908;BME280;51412;52.236;5.188;2022-08-19T04:56:42;101349.22;;;18.04;83.94
64908;BME280;51412;52.236;5.188;2022-08-19T04:59:09;101349.56;;;18.06;83.70
64908;BME280;51412;52.236;5.188;2022-08-19T05:01:36;101360.28;;;18.10;83.74
64908;BME280;51412;52.236;5.188;2022-08-19T05:04:04;101356.03;;;18.12;84.33
64908;BME280;51412;52.236;5.188;2022-08-19T05:06:33;101363.69;;;18.14;84.16
64908;BME280;51412;52.236;5.188;2022-08-19T05:09:00;101359.75;;;18.22;84.15
64908;BME280;51412;52.236;5.188;2022-08-19T05:11:30;101362.41;;;18.26;84.80
64908;BME280;51412;52.236;5.188;2022-08-19T05:13:57;101372.28;;;18.36;84.65
64908;BME280;51412;52.236;5.188;2022-08-19T05:16:25;101371.88;;;18.38;83.96
64908;BME280;51412;52.236;5.188;2022-08-19T05:18:52;101370.31;;;18.40;83.77
64908;BME280;51412;52.236;5.188;2022-08-19T05:21:39;101372.16;;;18.47;85.10
64908;BME280;51412;52.236;5.188;2022-08-19T05:24:23;101362.47;;;18.53;84.80
64908;BME280;51412;52.236;5.188;2022-08-19T05:26:52;101365.44;;;18.59;84.15
64908;BME280;51412;52.236;5.188;2022-08-19T05:29:22;101365.41;;;18.62;84.50
64908;BME280;51412;52.236;5.188;2022-08-19T05:31:51;101349.56;;;18.68;84.84
64908;BME280;51412;52.236;5.188;2022-08-19T05:34:19;101352.56;;;18.74;85.19
64908;BME280;51412;52.236;5.188;2022-08-19T05:36:51;101348.25;;;18.80;85.59
64908;BME280;51412;52.236;5.188;2022-08-19T05:39:23;101360.84;;;18.87;86.09
64908;BME280;51412;52.236;5.188;2022-08-19T05:41:52;101356.50;;;18.96;86.31
64908;BME280;51412;52.236;5.188;2022-08-19T05:44:20;101364.84;;;19.06;86.72
64908;BME280;51412;52.236;5.188;2022-08-19T05:46:47;101351.25;;;19.13;87.44
64908;BME280;51412;52.236;5.188;2022-08-19T05:49:15;101356.16;;;19.18;87.86
64908;BME280;51412;52.236;5.188;2022-08-19T05:51:42;101347.97;;;19.25;87.94
64908;BME280;51412;52.236;5.188;2022-08-19T05:54:10;101353.25;;;19.32;87.85
64908;BME280;51412;52.236;5.188;2022-08-19T05:56:39;101352.00;;;19.37;87.94
64908;BME280;51412;52.236;5.188;2022-08-19T05:59:06;101352.66;;;19.45;87.94
64908;BME280;51412;52.236;5.188;2022-08-19T06:01:37;101352.19;;;19.50;87.88
64908;BME280;51412;52.236;5.188;2022-08-19T06:04:04;101345.13;;;19.56;88.01
64908;BME280;51412;52.236;5.188;2022-08-19T06:06:31;101347.72;;;19.63;88.31
64908;BME280;51412;52.236;5.188;2022-08-19T06:08:59;101345.22;;;19.73;88.21
64908;BME280;51412;52.236;5.188;2022-08-19T06:11:35;101351.22;;;19.84;87.83
64908;BME280;51412;52.236;5.188;2022-08-19T06:14:04;101349.50;;;19.94;87.65
64908;BME280;51412;52.236;5.188;2022-08-19T06:16:33;101351.66;;;20.02;87.39
64908;BME280;51412;52.236;5.188;2022-08-19T06:19:02;101353.84;;;20.08;87.31
64908;BME280;51412;52.236;5.188;2022-08-19T06:21:30;101363.00;;;20.14;86.90
64908;BME280;51412;52.236;5.188;2022-08-19T06:23:57;101352.19;;;20.14;86.71
64908;BME280;51412;52.236;5.188;2022-08-19T06:26:24;101351.97;;;20.25;86.38
64908;BME280;51412;52.236;5.188;2022-08-19T06:28:53;101349.38;;;20.38;86.06
64908;BME280;51412;52.236;5.188;2022-08-19T06:31:23;101348.41;;;20.48;85.27
64908;BME280;51412;52.236;5.188;2022-08-19T06:33:49;101346.91;;;20.63;85.07
64908;BME280;51412;52.236;5.188;2022-08-19T06:36:20;101356.25;;;20.79;84.65
64908;BME280;51412;52.236;5.188;2022-08-19T06:38:55;101350.19;;;20.91;83.80
64908;BME280;51412;52.236;5.188;2022-08-19T06:41:22;101355.94;;;20.93;83.51
64908;BME280;51412;52.236;5.188;2022-08-19T06:43:49;101352.81;;;20.95;83.67
64908;BME280;51412;52.236;5.188;2022-08-19T06:46:18;101358.28;;;21.08;83.29
64908;BME280;51412;52.236;5.188;2022-08-19T06:48:45;101352.81;;;21.11;82.87
64908;BME280;51412;52.236;5.188;2022-08-19T06:51:13;101357.28;;;21.18;82.85
64908;BME280;51412;52.236;5.188;2022-08-19T06:53:40;101362.06;;;21.27;82.11
64908;BME280;51412;52.236;5.188;2022-08-19T06:56:12;101363.94;;;21.30;82.02
64908;BME280;51412;52.236;5.188;2022-08-19T06:58:39;101359.63;;;21.32;81.79
64908;BME280;51412;52.236;5.188;2022-08-19T07:01:06;101366.78;;;21.39;81.78
64908;BME280;51412;52.236;5.188;2022-08-19T07:03:36;101369.41;;;21.43;81.06
64908;BME280;51412;52.236;5.188;2022-08-19T07:06:03;101365.78;;;21.49;81.07
64908;BME280;51412;52.236;5.188;2022-08-19T07:08:30;101372.22;;;21.56;80.66
64908;BME280;51412;52.236;5.188;2022-08-19T07:10:57;101372.47;;;21.61;80.87
64908;BME280;51412;52.236;5.188;2022-08-19T07:13:24;101374.22;;;21.68;80.56
64908;BME280;51412;52.236;5.188;2022-08-19T07:15:50;101387.63;;;21.72;80.23
64908;BME280;51412;52.236;5.188;2022-08-19T07:18:18;101378.69;;;21.75;79.72
64908;BME280;51412;52.236;5.188;2022-08-19T07:20:47;101387.03;;;21.80;79.72
64908;BME280;51412;52.236;5.188;2022-08-19T07:23:13;101385.06;;;21.81;79.43
64908;BME280;51412;52.236;5.188;2022-08-19T07:25:40;101385.94;;;21.78;79.44
64908;BME280;51412;52.236;5.188;2022-08-19T07:28:07;101388.50;;;21.68;79.80
64908;BME280;51412;52.236;5.188;2022-08-19T07:30:36;101384.97;;;21.55;80.41
64908;BME280;51412;52.236;5.188;2022-08-19T07:33:02;101389.88;;;21.44;80.74
64908;BME280;51412;52.236;5.188;2022-08-19T07:35:29;101396.63;;;21.35;81.51
64908;BME280;51412;52.236;5.188;2022-08-19T07:37:58;101392.59;;;21.27;81.74
64908;BME280;51412;52.236;5.188;2022-08-19T07:40:28;101387.69;;;21.22;82.10
64908;BME280;51412;52.236;5.188;2022-08-19T07:42:55;101381.50;;;21.22;82.21
64908;BME280;51412;52.236;5.188;2022-08-19T07:45:21;101384.63;;;21.20;82.85
64908;BME280;51412;52.236;5.188;2022-08-19T07:47:48;101378.56;;;21.16;83.05
64908;BME280;51412;52.236;5.188;2022-08-19T07:50:15;101371.66;;;21.15;83.10
64908;BME280;51412;52.236;5.188;2022-08-19T07:52:43;101390.81;;;21.04;83.31
64908;BME280;51412;52.236;5.188;2022-08-19T07:55:11;101388.94;;;21.01;83.90
64908;BME280;51412;52.236;5.188;2022-08-19T07:57:38;101391.31;;;20.99;84.33
64908;BME280;51412;52.236;5.188;2022-08-19T08:00:06;101392.56;;;20.94;84.43
64908;BME280;51412;52.236;5.188;2022-08-19T08:02:33;101399.16;;;20.93;84.70
64908;BME280;51412;52.236;5.188;2022-08-19T08:04:59;101403.78;;;20.93;84.73
64908;BME280;51412;52.236;5.188;2022-08-19T08:07:43;101403.03;;;20.92;84.36
64908;BME280;51412;52.236;5.188;2022-08-19T08:10:29;101405.81;;;20.89;84.42
64908;BME280;51412;52.236;5.188;2022-08-19T08:12:55;101405.06;;;20.88;84.97
64908;BME280;51412;52.236;5.188;2022-08-19T08:15:22;101400.47;;;20.85;84.66
64908;BME280;51412;52.236;5.188;2022-08-19T08:17:49;101417.06;;;20.87;85.10
64908;BME280;51412;52.236;5.188;2022-08-19T08:20:16;101409.19;;;20.93;85.14
64908;BME280;51412;52.236;5.188;2022-08-19T08:22:43;101426.94;;;20.94;84.94
64908;BME280;51412;52.236;5.188;2022-08-19T08:25:29;101429.63;;;20.94;84.97
64908;BME280;51412;52.236;5.188;2022-08-19T08:27:56;101425.28;;;21.00;85.27
64908;BME280;51412;52.236;5.188;2022-08-19T08:30:26;101420.44;;;21.08;84.78
64908;BME280;51412;52.236;5.188;2022-08-19T08:32:54;101421.81;;;21.16;85.17
64908;BME280;51412;52.236;5.188;2022-08-19T08:35:22;101418.78;;;21.30;84.48
64908;BME280;51412;52.236;5.188;2022-08-19T08:37:52;101420.78;;;21.43;84.11
64908;BME280;51412;52.236;5.188;2022-08-19T08:40:22;101419.84;;;21.49;83.63
64908;BME280;51412;52.236;5.188;2022-08-19T08:42:55;101422.41;;;21.57;83.14
64908;BME280;51412;52.236;5.188;2022-08-19T08:45:26;101427.53;;;21.67;82.35
64908;BME280;51412;52.236;5.188;2022-08-19T08:47:56;101424.75;;;21.71;82.08
64908;BME280;51412;52.236;5.188;2022-08-19T08:50:29;101427.03;;;21.73;81.56
64908;BME280;51412;52.236;5.188;2022-08-19T08:53:02;101428.72;;;21.83;81.40
64908;BME280;51412;52.236;5.188;2022-08-19T08:55:30;101430.47;;;21.90;80.96
64908;BME280;51412;52.236;5.188;2022-08-19T08:58:03;101435.25;;;21.98;80.66
64908;BME280;51412;52.236;5.188;2022-08-19T09:00:32;101437.53;;;22.00;80.54
64908;BME280;51412;52.236;5.188;2022-08-19T09:03:01;101437.03;;;22.05;80.10
64908;BME280;51412;52.236;5.188;2022-08-19T09:05:38;101440.38;;;22.09;79.53
64908;BME280;51412;52.236;5.188;2022-08-19T09:08:13;101433.34;;;22.12;79.85
64908;BME280;51412;52.236;5.188;2022-08-19T09:10:44;101420.06;;;22.17;79.61
64908;BME280;51412;52.236;5.188;2022-08-19T09:13:21;101424.63;;;22.20;79.64
64908;BME280;51412;52.236;5.188;2022-08-19T09:15:55;101425.94;;;22.29;78.84
64908;BME280;51412;52.236;5.188;2022-08-19T09:18:23;101432.78;;;22.33;78.16
64908;BME280;51412;52.236;5.188;2022-08-19T09:20:50;101434.97;;;22.39;79.30
64908;BME280;51412;52.236;5.188;2022-08-19T09:23:16;101431.31;;;22.58;79.11
64908;BME280;51412;52.236;5.188;2022-08-19T09:25:43;101434.59;;;22.79;78.96
64908;BME280;51412;52.236;5.188;2022-08-19T09:28:09;101435.59;;;22.98;78.36
64908;BME280;51412;52.236;5.188;2022-08-19T09:30:40;101435.94;;;23.13;77.28
64908;BME280;51412;52.236;5.188;2022-08-19T09:33:07;101430.59;;;23.22;75.72
64908;BME280;51412;52.236;5.188;2022-08-19T09:35:34;101431.44;;;23.32;75.72
64908;BME280;51412;52.236;5.188;2022-08-19T09:38:01;101441.41;;;23.35;74.41
64908;BME280;51412;52.236;5.188;2022-08-19T09:40:29;101439.03;;;23.37;74.56
64908;BME280;51412;52.236;5.188;2022-08-19T09:42:56;101436.78;;;23.35;74.91
64908;BME280;51412;52.236;5.188;2022-08-19T09:45:28;101433.72;;;23.46;74.61
64908;BME280;51412;52.236;5.188;2022-08-19T09:47:56;101438.53;;;23.64;74.06
64908;BME280;51412;52.236;5.188;2022-08-19T09:50:23;101435.00;;;23.77;73.05
64908;BME280;51412;52.236;5.188;2022-08-19T09:52:50;101442.56;;;23.95;73.41
64908;BME280;51412;52.236;5.188;2022-08-19T09:55:18;101438.47;;;24.12;72.17
64908;BME280;51412;52.236;5.188;2022-08-19T09:57:45;101433.91;;;24.31;72.04
64908;BME280;51412;52.236;5.188;2022-08-19T10:00:12;101437.66;;;24.56;71.20
64908;BME280;51412;52.236;5.188;2022-08-19T10:02:38;101436.84;;;24.68;70.53
64908;BME280;51412;52.236;5.188;2022-08-19T10:05:07;101435.94;;;24.71;69.79
64908;BME280;51412;52.236;5.188;2022-08-19T10:07:51;101441.00;;;24.92;68.76
64908;BME280;51412;52.236;5.188;2022-08-19T10:10:18;101442.72;;;25.08;68.48
64908;BME280;51412;52.236;5.188;2022-08-19T10:12:44;101429.13;;;25.26;67.62
64908;BME280;51412;52.236;5.188;2022-08-19T10:15:13;101425.88;;;25.41;67.29
64908;BME280;51412;52.236;5.188;2022-08-19T10:17:40;101426.97;;;25.62;67.54
64908;BME280;51412;52.236;5.188;2022-08-19T10:20:08;101426.78;;;25.84;65.69
64908;BME280;51412;52.236;5.188;2022-08-19T10:22:35;101429.81;;;25.86;65.01
64908;BME280;51412;52.236;5.188;2022-08-19T10:25:04;101424.53;;;25.82;64.64
64908;BME280;51412;52.236;5.188;2022-08-19T10:27:31;101416.50;;;25.88;64.92
64908;BME280;51412;52.236;5.188;2022-08-19T10:29:57;101428.59;;;25.96;64.76
64908;BME280;51412;52.236;5.188;2022-08-19T10:32:24;101425.13;;;26.14;65.00
64908;BME280;51412;52.236;5.188;2022-08-19T10:34:50;101418.56;;;26.30;64.41
64908;BME280;51412;52.236;5.188;2022-08-19T10:37:18;101422.19;;;26.27;63.78
64908;BME280;51412;52.236;5.188;2022-08-19T10:39:46;101424.00;;;26.30;63.84
64908;BME280;51412;52.236;5.188;2022-08-19T10:42:13;101421.28;;;26.30;62.90
64908;BME280;51412;52.236;5.188;2022-08-19T10:44:41;101419.00;;;26.29;63.11
64908;BME280;51412;52.236;5.188;2022-08-19T10:47:08;101413.75;;;26.25;63.19
64908;BME280;51412;52.236;5.188;2022-08-19T10:49:34;101419.00;;;26.38;63.34
64908;BME280;51412;52.236;5.188;2022-08-19T10:52:23;101413.66;;;26.44;62.12
64908;BME280;51412;52.236;5.188;2022-08-19T10:55:01;101410.31;;;26.49;62.42
64908;BME280;51412;52.236;5.188;2022-08-19T10:57:45;101409.72;;;26.45;62.08
64908;BME280;51412;52.236;5.188;2022-08-19T11:00:12;101406.47;;;26.22;60.82
64908;BME280;51412;52.236;5.188;2022-08-19T11:02:39;101417.25;;;26.07;61.20
64908;BME280;51412;52.236;5.188;2022-08-19T11:05:07;101417.09;;;26.01;61.93
64908;BME280;51412;52.236;5.188;2022-08-19T11:07:37;101420.41;;;25.96;62.63
64908;BME280;51412;52.236;5.188;2022-08-19T11:10:05;101417.38;;;26.13;62.31
64908;BME280;51412;52.236;5.188;2022-08-19T11:12:32;101408.31;;;26.16;61.16
64908;BME280;51412;52.236;5.188;2022-08-19T11:14:58;101418.03;;;26.08;61.16
64908;BME280;51412;52.236;5.188;2022-08-19T11:17:25;101418.28;;;26.00;62.06
64908;BME280;51412;52.236;5.188;2022-08-19T11:19:51;101413.63;;;26.01;62.42
64908;BME280;51412;52.236;5.188;2022-08-19T11:22:18;101414.50;;;26.16;62.20
64908;BME280;51412;52.236;5.188;2022-08-19T11:24:46;101408.56;;;26.27;61.91
64908;BME280;51412;52.236;5.188;2022-08-19T11:27:13;101417.34;;;26.31;61.72
64908;BME280;51412;52.236;5.188;2022-08-19T11:29:39;101415.09;;;26.30;61.01
64908;BME280;51412;52.236;5.188;2022-08-19T11:32:09;101409.78;;;26.26;61.08
64908;BME280;51412;52.236;5.188;2022-08-19T11:34:36;101409.53;;;26.15;62.00
64908;BME280;51412;52.236;5.188;2022-08-19T11:37:03;101411.06;;;26.07;62.69
64908;BME280;51412;52.236;5.188;2022-08-19T11:39:32;101408.47;;;26.03;63.18
64908;BME280;51412;52.236;5.188;2022-08-19T11:42:01;101408.19;;;25.92;63.28
64908;BME280;51412;52.236;5.188;2022-08-19T11:44:28;101405.91;;;25.81;63.20
64908;BME280;51412;52.236;5.188;2022-08-19T11:46:55;101412.88;;;25.72;63.50
64908;BME280;51412;52.236;5.188;2022-08-19T11:49:22;101416.06;;;25.62;63.96
64908;BME280;51412;52.236;5.188;2022-08-19T11:51:49;101413.47;;;25.49;64.61
64908;BME280;51412;52.236;5.188;2022-08-19T11:54:16;101429.19;;;25.45;65.01
64908;BME280;51412;52.236;5.188;2022-08-19T11:56:44;101433.28;;;25.40;65.75
64908;BME280;51412;52.236;5.188;2022-08-19T11:59:12;101441.09;;;25.19;67.10
64908;BME280;51412;52.236;5.188;2022-08-19T12:01:38;101441.78;;;25.01;68.43
64908;BME280;51412;52.236;5.188;2022-08-19T12:04:06;101437.81;;;24.84;70.39
64908;BME280;51412;52.236;5.188;2022-08-19T12:06:33;101440.19;;;24.73;71.72
64908;BME280;51412;52.236;5.188;2022-08-19T12:09:04;101433.81;;;24.66;72.42
64908;BME280;51412;52.236;5.188;2022-08-19T12:11:33;101439.78;;;24.61;72.89
64908;BME280;51412;52.236;5.188;2022-08-19T12:13:59;101437.66;;;24.56;73.65
64908;BME280;51412;52.236;5.188;2022-08-19T12:16:29;101443.97;;;24.53;74.55
64908;BME280;51412;52.236;5.188;2022-08-19T12:18:57;101439.88;;;24.48;74.65
64908;BME280;51412;52.236;5.188;2022-08-19T12:21:28;101440.34;;;24.47;74.99
64908;BME280;51412;52.236;5.188;2022-08-19T12:23:56;101440.63;;;24.49;74.63
64908;BME280;51412;52.236;5.188;2022-08-19T12:26:24;101443.50;;;24.45;75.27
64908;BME280;51412;52.236;5.188;2022-08-19T12:28:51;101445.44;;;24.45;73.99
64908;BME280;51412;52.236;5.188;2022-08-19T12:31:18;101439.25;;;24.44;74.52
64908;BME280;51412;52.236;5.188;2022-08-19T12:33:47;101434.91;;;24.47;73.80
64908;BME280;51412;52.236;5.188;2022-08-19T12:36:15;101428.53;;;24.41;73.10
64908;BME280;51412;52.236;5.188;2022-08-19T12:38:43;101423.41;;;24.43;73.46
64908;BME280;51412;52.236;5.188;2022-08-19T12:41:12;101421.94;;;24.51;73.98
64908;BME280;51412;52.236;5.188;2022-08-19T12:43:39;101422.94;;;24.66;73.61
64908;BME280;51412;52.236;5.188;2022-08-19T12:46:06;101423.75;;;24.76;73.23
64908;BME280;51412;52.236;5.188;2022-08-19T12:48:33;101419.09;;;24.86;73.24
64908;BME280;51412;52.236;5.188;2022-08-19T12:51:06;101415.78;;;24.91;71.49
64908;BME280;51412;52.236;5.188;2022-08-19T12:53:34;101422.72;;;24.92;70.72
64908;BME280;51412;52.236;5.188;2022-08-19T12:56:02;101428.47;;;24.94;70.83